No particular awareness of the weather is required.    There are no Weather-warnings


Meteo18 Weather Cam more information Meteo18 Weather Cam


Thunder radar more information blitzortung!


Rain radar more information rain snow radar


Visit our other weather sites:

Template documentation
and downloads

And another site



Weather Underground History page Text

Daily Summary for January 13, 2018 Units:  English    Metric   Both
« Previous Day
Next Day »
Daily Weekly Monthly Yearly Custom
  High: Low: Average:
Temperature: TemperatureC °F -0.3 °F 2.3 °F
Dew Point: DewpointC °F -0.7 °F 1.6 °F
Humidity: Humidity % 86 % 95 %
Wind Speed: WindSpeedKMH mph 0.0 mph 1.7 mph
Wind Gust: WindSpeedGustKMH mph - -
Wind:- - East
Pressure: PressurehPa in 1015.8 in -
Precipitation: 0.5 in    
Historical Graphs
 
 
Tabular Data for January 13, 2018
Time Temperature Dew Point Pressure Wind Wind Speed Wind Gust Humidity Rainfall Rate (Hourly)
TemperatureC °F DewpointC °F PressurehPa in Calm     Humidity % HourlyPrecipMM in
00:04 3.3 °F 2.9 °F 1024.3 in NNW 1.4 mph 1.6 mph 97 % 0.0 in
00:10 3.2 °F 2.8 °F 1024.3 in NW 1.4 mph 1.6 mph 97 % 0.0 in
00:16 3.2 °F 2.8 °F 1024.3 in Calm   1.6 mph 97 % 0.0 in
00:22 2.9 °F 2.3 °F 1024.3 in Calm   1.6 mph 96 % 0.0 in
00:40 2.4 °F 2.0 °F 1023.9 in NNE 1.4 mph 1.6 mph 97 % 0.0 in
00:46 2.3 °F 1.9 °F 1023.9 in Calm   1.6 mph 97 % 0.0 in
00:52 2.0 °F 1.4 °F 1023.9 in NE 3.2 mph 3.2 mph 96 % 0.0 in
00:58 1.7 °F 1.1 °F 1023.9 in NE 3.2 mph 4.8 mph 96 % 0.0 in
01:10 1.5 °F 1.1 °F 1023.9 in Calm   1.6 mph 97 % 0.0 in
01:16 1.7 °F 1.3 °F 1023.9 in Calm   1.6 mph 97 % 0.3 in
01:22 1.8 °F 1.4 °F 1023.9 in NNE 1.4 mph 1.6 mph 97 % 0.3 in
01:28 1.9 °F 1.5 °F 1023.9 in NNE 1.4 mph 1.6 mph 97 % 0.3 in
01:34 1.9 °F 1.5 °F 1023.6 in NE 1.4 mph 1.6 mph 97 % 0.3 in
01:40 1.9 °F 1.5 °F 1023.6 in Calm     97 % 0.3 in
01:46 1.8 °F 1.4 °F 1023.6 in Calm     97 % 0.3 in
01:52 1.8 °F 1.4 °F 1023.2 in Calm     97 % 0.3 in
01:58 1.7 °F 1.3 °F 1023.2 in Calm     97 % 0.3 in
02:04 1.6 °F 1.2 °F 1023.2 in Calm     97 % 0.3 in
02:10 1.5 °F 1.1 °F 1023.2 in Calm     97 % 0.3 in
02:16 1.5 °F 1.1 °F 1023.2 in Calm     97 % 0.0 in
02:22 1.4 °F 1.0 °F 1022.9 in Calm     97 % 0.0 in
02:28 1.4 °F 1.0 °F 1022.9 in Calm   1.6 mph 97 % 0.0 in
02:41 1.3 °F 0.9 °F 1022.9 in Calm   1.6 mph 97 % 0.0 in
02:53 1.2 °F 0.8 °F 1022.9 in Calm     97 % 0.0 in
02:59 1.1 °F 0.7 °F 1022.9 in Calm     97 % 0.0 in
03:11 0.8 °F 0.4 °F 1022.6 in Calm     97 % 0.0 in
03:17 0.8 °F 0.4 °F 1022.9 in WNW 1.4 mph 3.2 mph 97 % 0.0 in
03:23 0.6 °F 0.2 °F 1022.9 in West 1.4 mph 3.2 mph 97 % 0.0 in
03:35 0.9 °F 0.5 °F 1022.6 in Calm     97 % 0.0 in
03:41 0.9 °F 0.5 °F 1022.2 in Calm     97 % 0.0 in
03:47 0.9 °F 0.5 °F 1022.2 in Calm     97 % 0.0 in
03:53 1.2 °F 0.9 °F 1022.2 in Calm     98 % 0.0 in
03:59 0.9 °F 0.5 °F 1022.2 in Calm     97 % 0.0 in
04:05 0.8 °F 0.4 °F 1022.2 in Calm     97 % 0.0 in
04:11 0.8 °F 0.4 °F 1022.2 in Calm     97 % 0.0 in
04:17 1.0 °F 0.7 °F 1022.2 in Calm     98 % 0.0 in
04:35 0.9 °F 0.6 °F 1021.9 in Calm     98 % 0.0 in
04:41 0.8 °F 0.5 °F 1021.9 in Calm     98 % 0.0 in
04:47 0.8 °F 0.5 °F 1022.2 in Calm     98 % 0.0 in
04:53 0.6 °F 0.2 °F 1021.9 in Calm     97 % 0.0 in
04:59 0.3 °F -0.1 °F 1021.9 in Calm     97 % 0.0 in
05:05 0.4 °F 0.0 °F 1022.2 in Calm     97 % 0.0 in
05:11 0.4 °F 0.0 °F 1021.9 in Calm     97 % 0.0 in
05:17 0.1 °F -0.3 °F 1021.9 in Calm     97 % 0.0 in
05:23 -0.3 °F -0.7 °F 1021.9 in SSE 1.4 mph 1.6 mph 97 % 0.0 in
05:29 -0.3 °F -0.7 °F 1021.9 in Calm   1.6 mph 97 % 0.0 in
05:35 -0.2 °F -0.6 °F 1021.9 in Calm   1.6 mph 97 % 0.0 in
05:41 -0.2 °F -0.6 °F 1021.9 in Calm     97 % 0.0 in
05:47 -0.1 °F -0.5 °F 1021.9 in Calm   1.6 mph 97 % 0.0 in
05:53 0.0 °F -0.4 °F 1021.6 in Calm     97 % 0.0 in
05:59 0.1 °F -0.3 °F 1021.6 in Calm     97 % 0.0 in
06:05 0.2 °F -0.2 °F 1021.6 in Calm     97 % 0.0 in
06:11 0.2 °F -0.2 °F 1021.6 in Calm     97 % 0.0 in
06:17 0.2 °F -0.1 °F 1021.6 in Calm     98 % 0.0 in
06:24 0.2 °F -0.2 °F 1021.6 in Calm     97 % 0.0 in
06:30 0.2 °F -0.2 °F 1021.6 in Calm     97 % 0.0 in
06:36 0.2 °F -0.2 °F 1021.2 in Calm     97 % 0.0 in
06:42 0.2 °F -0.2 °F 1021.2 in Calm     97 % 0.0 in
06:48 0.2 °F -0.2 °F 1021.2 in Calm     97 % 0.0 in
06:54 0.2 °F -0.2 °F 1021.2 in Calm     97 % 0.0 in
07:00 0.3 °F -0.1 °F 1021.2 in Calm     97 % 0.0 in
07:06 0.3 °F -0.1 °F 1021.2 in Calm     97 % 0.0 in
07:12 0.3 °F -0.1 °F 1020.9 in Calm     97 % 0.0 in
07:18 0.3 °F 0.0 °F 1020.9 in Calm     98 % 0.0 in
07:24 0.4 °F 0.1 °F 1020.9 in Calm     98 % 0.0 in
07:30 0.4 °F 0.1 °F 1020.9 in Calm     98 % 0.0 in
07:36 0.4 °F 0.1 °F 1020.9 in Calm     98 % 0.0 in
07:42 0.5 °F 0.2 °F 1020.9 in Calm     98 % 0.0 in
07:48 0.6 °F 0.3 °F 1020.9 in Calm     98 % 0.3 in
08:00 0.6 °F 0.3 °F 1020.5 in Calm     98 % 0.3 in
08:07 0.6 °F 0.3 °F 1020.5 in Calm     98 % 0.3 in
08:13 0.7 °F 0.4 °F 1020.5 in Calm   1.6 mph 98 % 0.3 in
08:19 0.8 °F 0.5 °F 1020.5 in Calm   1.6 mph 98 % 0.3 in
08:25 0.8 °F 0.5 °F 1020.5 in ENE 4.7 mph 4.8 mph 98 % 0.3 in
08:31 0.7 °F 0.4 °F 1020.5 in East 3.2 mph 4.8 mph 98 % 0.3 in
08:37 0.8 °F 0.5 °F 1020.5 in ENE 6.4 mph 6.4 mph 98 % 0.3 in
08:43 0.8 °F 0.5 °F 1020.5 in East 9.7 mph 9.7 mph 98 % 0.3 in
08:49 0.7 °F 0.4 °F 1020.5 in ESE 1.4 mph 4.8 mph 98 % 0.0 in
08:55 0.7 °F 0.4 °F 1020.5 in Calm   3.2 mph 98 % 0.0 in
09:01 0.8 °F 0.5 °F 1020.5 in Calm   3.2 mph 98 % 0.0 in
09:07 0.8 °F 0.5 °F 1020.5 in NNE 4.7 mph 6.4 mph 98 % 0.0 in
09:13 0.8 °F 0.5 °F 1020.5 in NNE 3.2 mph 6.4 mph 98 % 0.0 in
09:19 0.9 °F 0.6 °F 1020.5 in East 1.4 mph 6.4 mph 98 % 0.0 in
09:25 0.9 °F 0.6 °F 1020.2 in NE 3.2 mph 4.8 mph 98 % 0.0 in
09:31 0.9 °F 0.6 °F 1020.5 in NNE 3.2 mph 3.2 mph 98 % 0.0 in
09:37 0.9 °F 0.6 °F 1020.5 in NNE 1.4 mph 3.2 mph 98 % 0.0 in
09:47 1.2 °F 0.9 °F 1020.5 in Calm   1.6 mph 98 % 0.0 in
09:53 1.3 °F 1.0 °F 1020.5 in Calm   1.6 mph 98 % 0.0 in
10:03 1.4 °F 1.1 °F 1020.2 in NE 3.2 mph 4.8 mph 98 % 0.0 in
10:09 1.5 °F 1.2 °F 1020.2 in NNE 3.2 mph 3.2 mph 98 % 0.0 in
10:17 1.7 °F 1.4 °F 1020.2 in Calm   3.2 mph 98 % 0.0 in
10:23 1.7 °F 1.4 °F 1020.2 in Calm   1.6 mph 98 % 0.0 in
10:29 1.8 °F 1.5 °F 1020.2 in East 4.7 mph 6.4 mph 98 % 0.0 in
10:35 1.9 °F 1.6 °F 1019.9 in ENE 3.2 mph 6.4 mph 98 % 0.0 in
10:41 1.8 °F 1.5 °F 1019.9 in NE 4.7 mph 6.4 mph 98 % 0.0 in
10:47 1.7 °F 1.4 °F 1019.9 in ENE 1.4 mph 6.4 mph 98 % 0.0 in
10:53 1.9 °F 1.6 °F 1019.9 in NE 1.4 mph 3.2 mph 98 % 0.0 in
10:59 2.0 °F 1.7 °F 1019.9 in NNE 1.4 mph 6.4 mph 98 % 0.0 in
11:05 2.1 °F 1.8 °F 1019.9 in ENE 3.2 mph 9.7 mph 98 % 0.0 in
11:11 2.1 °F 1.8 °F 1019.9 in ENE 3.2 mph 6.4 mph 98 % 0.0 in
11:19 2.3 °F 2.0 °F 1019.9 in NE 4.7 mph 9.7 mph 98 % 0.0 in
11:25 2.4 °F 2.1 °F 1019.9 in ENE 6.4 mph 8.0 mph 98 % 0.0 in
11:31 2.4 °F 2.1 °F 1019.9 in ENE 3.2 mph 9.7 mph 98 % 0.0 in
11:37 2.3 °F 2.0 °F 1019.5 in NNE 4.7 mph 12.9 mph 98 % 0.0 in
11:43 2.4 °F 2.1 °F 1019.5 in ENE 1.4 mph 9.7 mph 98 % 0.0 in
11:49 2.7 °F 2.4 °F 1019.5 in East 6.4 mph 8.0 mph 98 % 0.0 in
11:55 2.8 °F 2.5 °F 1019.5 in East 7.9 mph 9.7 mph 98 % 0.0 in
12:01 2.8 °F 2.5 °F 1019.5 in NNE 3.2 mph 9.7 mph 98 % 0.0 in
12:07 2.9 °F 2.6 °F 1019.5 in East 3.2 mph 11.3 mph 98 % 0.0 in
12:13 3.1 °F 2.8 °F 1019.5 in NE 4.7 mph 11.3 mph 98 % 0.0 in
12:19 2.9 °F 2.6 °F 1019.5 in NE 6.4 mph 6.4 mph 98 % 0.0 in
12:25 3.1 °F 2.8 °F 1019.2 in ENE 3.2 mph 11.3 mph 98 % 0.0 in
12:31 3.1 °F 2.8 °F 1019.2 in ENE 4.7 mph 14.5 mph 98 % 0.0 in
12:37 3.2 °F 2.9 °F 1018.8 in ENE 7.9 mph 9.7 mph 98 % 0.0 in
12:44 3.3 °F 3.0 °F 1018.8 in NE 4.7 mph 9.7 mph 98 % 0.0 in
12:49 3.5 °F 3.2 °F 1018.8 in East 9.7 mph 11.3 mph 98 % 0.0 in
12:55 3.4 °F 3.1 °F 1018.8 in East 4.7 mph 9.7 mph 98 % 0.0 in
13:02 3.5 °F 3.2 °F 1018.5 in ENE 1.4 mph 6.4 mph 98 % 0.0 in
13:08 3.7 °F 3.4 °F 1018.5 in ENE 3.2 mph 8.0 mph 98 % 0.0 in
13:14 3.9 °F 3.6 °F 1018.2 in NE 1.4 mph 3.2 mph 98 % 0.0 in
13:20 4.1 °F 3.8 °F 1018.2 in East 6.4 mph 6.4 mph 98 % 0.0 in
13:25 4.1 °F 3.7 °F 1017.8 in NE 6.4 mph 9.7 mph 97 % 0.0 in
13:31 4.1 °F 3.7 °F 1017.8 in NNE 1.4 mph 8.0 mph 97 % 0.0 in
13:38 4.3 °F 3.9 °F 1017.8 in East 7.9 mph 12.9 mph 97 % 0.0 in
13:44 4.5 °F 4.1 °F 1017.8 in East 1.4 mph 4.8 mph 97 % 0.0 in
13:50 4.4 °F 3.7 °F 1017.5 in ESE 1.4 mph 6.4 mph 95 % 0.0 in
13:55 4.7 °F 4.0 °F 1017.5 in ENE 3.2 mph 6.4 mph 95 % 0.0 in
14:02 4.8 °F 3.9 °F 1017.5 in East 4.7 mph 8.0 mph 94 % 0.0 in
14:08 4.9 °F 3.7 °F 1017.5 in ENE 3.2 mph 11.3 mph 92 % 0.0 in
14:14 5.2 °F 3.7 °F 1017.2 in ENE 3.2 mph 8.0 mph 90 % 0.0 in
14:20 5.3 °F 3.8 °F 1017.2 in NE 4.7 mph 6.4 mph 90 % 0.0 in
14:25 5.4 °F 3.7 °F 1017.2 in ENE 3.2 mph 6.4 mph 89 % 0.0 in
14:38 5.6 °F 3.6 °F 1016.8 in ENE 3.2 mph 9.7 mph 87 % 0.0 in
14:44 5.7 °F 3.7 °F 1017.2 in ENE 6.4 mph 9.7 mph 87 % 0.0 in
14:50 5.7 °F 3.5 °F 1016.8 in ENE 6.4 mph 8.0 mph 86 % 0.0 in
14:56 5.6 °F 3.4 °F 1016.8 in East 4.7 mph 9.7 mph 86 % 0.0 in
15:02 5.5 °F 3.5 °F 1016.8 in NE 6.4 mph 8.0 mph 87 % 0.0 in
15:10 5.2 °F 3.4 °F 1016.5 in NE 6.4 mph 11.3 mph 88 % 0.0 in
15:16 5.0 °F 3.5 °F 1016.5 in NE 13.0 mph 13.0 mph 90 % 0.0 in
15:22 4.9 °F 3.4 °F 1016.5 in NNE 6.4 mph 11.3 mph 90 % 0.0 in
15:28 4.8 °F 3.3 °F 1016.5 in NE 1.4 mph 14.5 mph 90 % 0.0 in
15:34 4.8 °F 3.3 °F 1016.5 in NE 4.7 mph 9.7 mph 90 % 0.0 in
15:40 4.7 °F 3.2 °F 1016.5 in NNE 4.7 mph 8.0 mph 90 % 0.0 in
15:46 4.7 °F 3.4 °F 1016.5 in NNW 1.4 mph 8.0 mph 91 % 0.0 in
16:00 4.4 °F 3.2 °F 1016.5 in NE 6.4 mph 9.7 mph 92 % 0.0 in
16:08 4.4 °F 3.2 °F 1016.1 in NNE 9.7 mph 12.9 mph 92 % 0.0 in
16:14 4.4 °F 3.2 °F 1016.5 in NE 6.4 mph 9.7 mph 92 % 0.0 in
16:20 4.4 °F 3.2 °F 1016.5 in NE 7.9 mph 9.7 mph 92 % 0.0 in
16:26 4.3 °F 3.0 °F 1016.1 in NE 3.2 mph 6.4 mph 91 % 0.0 in
16:32 4.1 °F 2.9 °F 1016.5 in NNE 3.2 mph 6.4 mph 92 % 0.0 in
16:38 3.9 °F 2.7 °F 1016.5 in NNW 1.4 mph 8.0 mph 92 % 0.0 in
16:44 3.8 °F 2.8 °F 1016.5 in NNW 3.2 mph 8.0 mph 93 % 0.0 in
16:56 3.7 °F 2.7 °F 1016.5 in NNW 3.2 mph 8.0 mph 93 % 0.0 in
17:02 3.7 °F 2.7 °F 1016.5 in NNW 3.2 mph 4.8 mph 93 % 0.0 in
17:08 3.6 °F 2.6 °F 1016.5 in Calm   4.8 mph 93 % 0.0 in
17:16 3.4 °F 2.4 °F 1016.5 in NNE 3.2 mph 3.2 mph 93 % 0.0 in
17:22 3.4 °F 2.4 °F 1016.5 in Calm   1.6 mph 93 % 0.0 in
17:28 3.4 °F 2.5 °F 1016.5 in NE 3.2 mph 4.8 mph 94 % 0.0 in
17:34 3.5 °F 2.5 °F 1016.1 in NNE 3.2 mph 4.8 mph 93 % 0.0 in
17:40 3.5 °F 2.6 °F 1016.5 in NE 3.2 mph 4.8 mph 94 % 0.0 in
17:46 3.6 °F 2.6 °F 1016.5 in NE 4.7 mph 6.4 mph 93 % 0.0 in
17:52 3.6 °F 2.6 °F 1016.1 in NE 3.2 mph 6.4 mph 93 % 0.0 in
17:58 3.6 °F 2.6 °F 1016.1 in Calm   3.2 mph 93 % 0.0 in
18:04 3.4 °F 2.4 °F 1016.1 in Calm   1.6 mph 93 % 0.0 in
18:10 3.4 °F 2.4 °F 1016.1 in NE 1.4 mph 3.2 mph 93 % 0.0 in
18:16 3.4 °F 2.4 °F 1016.1 in Calm   1.6 mph 93 % 0.0 in
18:22 3.3 °F 2.3 °F 1016.1 in Calm     93 % 0.0 in
18:28 3.2 °F 2.3 °F 1016.1 in Calm     94 % 0.0 in
18:35 3.2 °F 2.3 °F 1016.1 in Calm     94 % 0.0 in
18:41 3.2 °F 2.3 °F 1016.1 in Calm     94 % 0.0 in
18:47 3.1 °F 2.2 °F 1016.1 in Calm     94 % 0.0 in
18:53 3.1 °F 2.2 °F 1016.1 in Calm     94 % 0.0 in
18:59 3.1 °F 2.2 °F 1016.1 in Calm     94 % 0.0 in
19:05 3.1 °F 2.2 °F 1016.1 in Calm     94 % 0.0 in
19:11 3.1 °F 2.4 °F 1016.1 in Calm     95 % 0.0 in
19:17 3.1 °F 2.4 °F 1016.1 in NE 1.4 mph 1.6 mph 95 % 0.0 in
19:23 3.1 °F 2.2 °F 1016.1 in Calm   1.6 mph 94 % 0.0 in
19:29 2.9 °F 2.0 °F 1016.1 in Calm     94 % 0.0 in
19:35 2.9 °F 2.0 °F 1016.1 in Calm     94 % 0.0 in
19:41 2.9 °F 2.0 °F 1016.1 in Calm     94 % 0.0 in
19:57 2.6 °F 1.7 °F 1016.1 in Calm     94 % 0.0 in
20:03 2.6 °F 1.9 °F 1016.1 in Calm     95 % 0.0 in
20:09 2.7 °F 2.0 °F 1016.1 in WNW 1.4 mph 1.6 mph 95 % 0.0 in
20:15 2.6 °F 1.7 °F 1016.1 in Calm     94 % 0.0 in
20:21 2.3 °F 1.4 °F 1016.1 in Calm   1.6 mph 94 % 0.0 in
20:28 2.2 °F 1.5 °F 1016.1 in WNW 1.4 mph 1.6 mph 95 % 0.0 in
20:34 2.2 °F 1.5 °F 1016.1 in Calm   1.6 mph 95 % 0.0 in
20:50 2.5 °F 1.9 °F 1015.8 in Calm     96 % 0.0 in
20:56 2.4 °F 1.7 °F 1015.8 in Calm   1.6 mph 95 % 0.0 in
21:02 2.3 °F 1.6 °F 1015.8 in Calm     95 % 0.0 in
21:08 2.2 °F 1.3 °F 1015.8 in Calm     94 % 0.0 in
21:18 2.2 °F 1.5 °F 1015.8 in Calm   1.6 mph 95 % 0.0 in
21:24 2.2 °F 1.5 °F 1015.8 in Calm   1.6 mph 95 % 0.0 in
21:30 2.2 °F 1.5 °F 1015.8 in Calm   1.6 mph 95 % 0.0 in
21:36 2.2 °F 1.3 °F 1015.8 in North 1.4 mph 1.6 mph 94 % 0.0 in
21:42 2.2 °F 1.5 °F 1015.8 in Calm     95 % 0.0 in
21:48 2.2 °F 1.5 °F 1015.8 in Calm   1.6 mph 95 % 0.0 in
21:54 2.3 °F 1.6 °F 1015.8 in Calm   1.6 mph 95 % 0.0 in
22:00 2.3 °F 1.4 °F 1015.8 in Calm   1.6 mph 94 % 0.0 in
22:06 2.3 °F 1.4 °F 1015.8 in Calm     94 % 0.0 in
22:12 2.2 °F 1.3 °F 1015.8 in Calm   1.6 mph 94 % 0.0 in
22:22 2.1 °F 1.1 °F 1015.8 in Calm   1.6 mph 93 % 0.0 in
22:29 2.1 °F 1.4 °F 1015.8 in Calm     95 % 0.0 in
22:35 2.2 °F 1.5 °F 1015.8 in Calm   1.6 mph 95 % 0.0 in
22:41 2.1 °F 1.4 °F 1015.8 in Calm     95 % 0.0 in
22:49 2.3 °F 1.6 °F 1015.8 in Calm     95 % 0.0 in
22:55 2.3 °F 1.6 °F 1015.8 in Calm     95 % 0.0 in
23:05 2.4 °F 1.7 °F 1015.8 in Calm     95 % 0.0 in
23:11 2.4 °F 1.7 °F 1015.8 in Calm     95 % 0.0 in
23:17 2.4 °F 1.5 °F 1015.8 in Calm     94 % 0.0 in
23:23 2.4 °F 1.5 °F 1015.8 in Calm     94 % 0.0 in
23:29 2.4 °F 1.5 °F 1015.8 in Calm     94 % 0.0 in
23:35 2.3 °F 1.4 °F 1015.8 in Calm     94 % 0.0 in
23:41 2.3 °F 1.4 °F 1015.8 in Calm     94 % 0.0 in
23:47 2.3 °F 1.4 °F 1016.1 in Calm     94 % 0.0 in
23:53 2.4 °F 1.5 °F 1016.1 in Calm     94 % 0.0 in
23:59 2.4 °F 1.5 °F 1016.1 in Calm     94 % 0.0 in
Meteo18
Compliments of Weather Underground - 4 mb

Script developed by  Jim McMurry - jmcmurry@mwt.net Adapted for the template by  Wim van der Kuil - Leuven-Template.eu

You find our weather info also at:

European Weather Network

Weather Underground

Equipment we use:

Weather-station
Davis Vue

Weather-program
Meteobridge

Weather-server
Raspberry PI 2 B+

Provider
1 and 1

Davis Vue

Meteobridge

Raspberry PI 2 B+

1 and 1